Time;durP1;ratioP1;P1;durP2;ratioP2;P2;SDS_P1;SDS_P2;PMS_P1;PMS_P2;Temp;Humidity;BMP_temperature;BMP_pressure;BME280_temperature;BME280_humidity;BME280_pressure;Samples;Min_cycle;Max_cycle;Signal;HPM_P1;HPM_P2
2021/05/12 00:01:51;;;;;;;;;;;;;;;;;;3532018;40;19945;-64
2021/05/12 00:04:17;;;;;;;;;;;;;;;;;;3531232;40;19962;-65
2021/05/12 00:06:42;;;;;;;;;;;;;;;;;;3537327;40;19934;-65
2021/05/12 00:09:08;;;;;;;;;;;;;;;;;;3538034;40;19942;-65
2021/05/12 00:11:34;;;;;;;;;;;;;;;;;;3539366;40;19945;-65
2021/05/12 00:14:00;;;;;;;;;;;;;;;;;;3543637;40;19954;-65
2021/05/12 00:16:26;;;;;;;;;;;;;;;;;;3540903;40;19941;-65
2021/05/12 00:18:52;;;;;;;;;;;;;;;;;;3541131;40;20196;-65
2021/05/12 00:21:32;;;;;;;;;;;;;;;;;;3540870;40;19934;-65
2021/05/12 00:23:59;;;;;;;;;;;;;;;;;;3526961;40;19941;-65
2021/05/12 00:26:26;;;;;;;;;;;;;;;;;;3540460;40;20028;-65
2021/05/12 00:28:52;;;;;;;;;;;;;;;;;;3539748;40;19974;-65
2021/05/12 00:31:19;;;;;;;;;;;9.80;99.90;;;;;;3542291;40;19934;-65
2021/05/12 00:33:44;;;;;;;;;;;;;;;;;;3545218;40;19938;-65
2021/05/12 00:36:10;;;;;;;;;;;;;;;;;;3541713;40;20219;-65
2021/05/12 00:38:36;;;;;;;;;;;;;;;;;;3547175;40;19949;-65
2021/05/12 00:41:02;;;;;;;;;;;;;;;;;;3531430;40;19942;-65
2021/05/12 00:43:28;;;;;;;;;;;;;;;;;;3540919;40;19946;-65
2021/05/12 00:45:54;;;;;;;;;;;;;;;;;;3540994;40;19934;-65
2021/05/12 00:48:20;;;;;;;;;;;;;;;;;;3540643;40;19970;-65
2021/05/12 00:50:46;;;;;;;;;;;;;;;;;;3540883;40;20288;-65
2021/05/12 00:53:12;;;;;;;;;;;;;;;;;;3540486;40;19942;-65
2021/05/12 00:55:37;;;;;;;;;;;;;;;;;;3541334;40;19942;-65
2021/05/12 00:58:03;;;;;;;;;;;;;;;;;;3541620;40;20288;-65
2021/05/12 01:00:29;;;;;;;;;;;;;;;;;;3540125;40;20020;-65
2021/05/12 01:02:55;;;;;;;;;;;;;;;;;;3539910;40;20021;-64
2021/05/12 01:05:30;;;;;;;;;;;9.20;99.90;;;;;;3544722;40;20184;-65
2021/05/12 01:07:56;;;;;;;;;;;8.70;99.90;;;;;;3532744;40;20020;-65
2021/05/12 01:10:22;;;;;;;;;;;8.50;99.90;;;;;;3531347;40;19959;-66
2021/05/12 01:12:47;;;;;;;;;;;;;;;;;;3539933;40;19934;-66
2021/05/12 01:15:13;;;;;;;;;;;;;;;;;;3530920;40;19930;-66
2021/05/12 01:17:39;;;;;;;;;;;;;;;;;;3531946;40;19938;-66
2021/05/12 01:20:05;;;;;;;;;;;;;;;;;;3540075;40;20180;-67
2021/05/12 01:22:31;;;;;;;;;;;;;;;;;;3537192;40;19933;-65
2021/05/12 01:24:57;;;;;;;;;;;;;;;;;;3540752;40;19937;-64
2021/05/12 01:27:23;;;;;;;;;;;;;;;;;;3541857;40;19971;-64
2021/05/12 01:29:49;;;;;;;;;;;;;;;;;;3540903;40;19931;-66
2021/05/12 01:32:15;;;;;;;;;;;;;;;;;;3540480;40;19957;-66
2021/05/12 01:34:41;;;;;;;;;;;;;;;;;;3541518;40;20305;-64
2021/05/12 01:37:07;;;;;;;;;;;;;;;;;;3543702;40;19942;-64
2021/05/12 01:39:33;;;;;;;;;;;;;;;;;;3531336;40;19934;-64
2021/05/12 01:41:58;;;;;;;;;;;;;;;;;;3540380;40;20181;-64
2021/05/12 01:44:24;;;;;;;;;;;;;;;;;;3540965;40;19930;-64
2021/05/12 01:46:50;;;;;;;;;;;;;;;;;;3537391;40;19942;-67
2021/05/12 01:49:16;;;;;;;;;;;;;;;;;;3540113;40;19942;-64
2021/05/12 01:51:42;;;;;;;;;;;;;;;;;;3531337;40;19930;-64
2021/05/12 01:54:08;;;;;;;;;;;;;;;;;;3531121;40;20225;-64
2021/05/12 01:56:34;;;;;;;;;;;;;;;;;;3540443;40;20184;-64
2021/05/12 01:59:00;;;;;;;;;;;;;;;;;;3531999;40;19937;-64
2021/05/12 02:01:26;;;;;;;;;;;;;;;;;;3542498;40;19930;-64
2021/05/12 02:03:52;;;;;;;;;;;;;;;;;;3542055;40;19937;-64
2021/05/12 02:06:18;;;;;;;;;;;;;;;;;;3531077;40;19938;-64
2021/05/12 02:08:44;;;;;;;;;;;;;;;;;;3530553;40;19930;-64
2021/05/12 02:11:09;;;;;;;;;;;;;;;;;;3530365;40;19930;-64
2021/05/12 02:13:35;;;;;;;;;;;;;;;;;;3533911;40;20279;-64
2021/05/12 02:16:01;;;;;;;;;;;;;;;;;;3529655;40;19931;-64
2021/05/12 02:18:28;;;;;;;;;;;8.10;99.90;;;;;;3529991;40;20267;-64
2021/05/12 02:20:54;;;;;;;;;;;;;;;;;;3531478;40;19946;-75
2021/05/12 02:23:20;;;;;;;;;;;;;;;;;;3532451;40;20196;-72
2021/05/12 02:25:46;;;;;;;;;;;;;;;;;;3533265;40;20040;-70
2021/05/12 02:28:11;;;;;;;;;;;;;;;;;;3529667;40;20029;-74
2021/05/12 02:30:37;;;;;;;;;;;;;;;;;;3531186;40;20021;-76
2021/05/12 02:33:03;;;;;;;;;;;;;;;;;;3531145;40;20021;-73
2021/05/12 02:35:29;;;;;;;;;;;;;;;;;;3522331;40;20296;-72
2021/05/12 02:37:55;;;;;;;;;;;;;;;;;;3532378;40;20022;-76
2021/05/12 02:40:21;;;;;;;;;;;;;;;;;;3532483;40;19942;-76
2021/05/12 02:42:47;;;;;;;;;;;;;;;;;;3531921;40;20288;-74
2021/05/12 02:45:13;;;;;;;;;;;;;;;;;;3532292;40;19938;-72
2021/05/12 02:47:39;;;;;;;;;;;;;;;;;;3530082;40;19984;-72
2021/05/12 02:50:05;;;;;;;;;;;;;;;;;;3530726;40;20021;-71
2021/05/12 02:52:31;;;;;;;;;;;;;;;;;;3532292;40;20280;-72
2021/05/12 02:54:57;;;;;;;;;;;;;;;;;;3530759;40;19934;-73
2021/05/12 02:57:22;;;;;;;;;;;;;;;;;;3530982;40;19934;-75
2021/05/12 02:59:48;;;;;;;;;;;;;;;;;;3530876;40;20543;-73
2021/05/12 03:02:14;;;;;;;;;;;;;;;;;;3529147;40;19992;-71
2021/05/12 03:04:40;;;;;;;;;;;;;;;;;;3540817;40;19941;-72
2021/05/12 03:07:06;;;;;;;;;;;;;;;;;;3543542;40;19961;-71
2021/05/12 03:09:32;;;;;;;;;;;;;;;;;;3540232;40;19954;-72
2021/05/12 03:11:58;;;;;;;;;;;;;;;;;;3531733;40;19934;-72
2021/05/12 03:14:24;;;;;;;;;;;;;;;;;;3541330;40;19934;-72
2021/05/12 03:16:50;;;;;;;;;;;;;;;;;;3540268;40;20195;-72
2021/05/12 03:19:15;;;;;;;;;;;;;;;;;;3539236;40;19966;-72
2021/05/12 03:21:41;;;;;;;;;;;;;;;;;;3540163;40;19941;-72
2021/05/12 03:24:07;;;;;;;;;;;;;;;;;;3531352;40;19960;-72
2021/05/12 03:26:33;;;;;;;;;;;;;;;;;;3540191;40;19942;-73
2021/05/12 03:28:59;;;;;;;;;;;;;;;;;;3540386;40;19970;-72
2021/05/12 03:31:25;;;;;;;;;;;;;;;;;;3541202;40;19941;-75
2021/05/12 03:34:00;;;;;;;;;;;;;;;;;;3538418;40;19934;-71
2021/05/12 03:36:26;;;;;;;;;;;;;;;;;;3538406;40;20279;-71
2021/05/12 03:38:52;;;;;;;;;;;;;;;;;;3538228;40;19934;-72
2021/05/12 03:41:18;;;;;;;;;;;;;;;;;;3544033;40;19945;-71
2021/05/12 03:43:44;;;;;;;;;;;;;;;;;;3540144;40;19934;-71
2021/05/12 03:46:10;;;;;;;;;;;;;;;;;;3539892;40;19969;-71
2021/05/12 03:48:36;;;;;;;;;;;;;;;;;;3544172;40;19941;-72
2021/05/12 03:51:02;;;;;;;;;;;;;;;;;;3541552;40;20219;-72
2021/05/12 03:53:28;;;;;;;;;;;;;;;;;;3545466;40;20311;-71
2021/05/12 03:55:54;;;;;;;;;;;;;;;;;;3548745;40;19934;-71
2021/05/12 03:58:19;;;;;;;;;;;;;;;;;;3541636;40;19934;-72
2021/05/12 04:00:46;;;;;;;;;;;;;;;;;;3541800;40;20200;-72
2021/05/12 04:03:12;;;;;;;;;;;;;;;;;;3531491;40;19937;-72
2021/05/12 04:05:38;;;;;;;;;;;;;;;;;;3537255;40;20196;-72
2021/05/12 04:08:04;;;;;;;;;;;;;;;;;;3543190;40;19930;-72
2021/05/12 04:10:29;;;;;;;;;;;;;;;;;;3541725;40;20192;-71
2021/05/12 04:12:56;;;;;;;;;;;;;;;;;;3545559;40;19957;-73
2021/05/12 04:15:21;;;;;;;;;;;;;;;;;;3541569;40;19950;-72
2021/05/12 04:17:47;;;;;;;;;;;;;;;;;;3541502;40;19930;-71
2021/05/12 04:20:13;;;;;;;;;;;;;;;;;;3541231;40;19938;-71
2021/05/12 04:22:39;;;;;;;;;;;;;;;;;;3541906;40;19937;-71
2021/05/12 04:25:05;;;;;;;;;;;;;;;;;;3532878;40;19942;-71
2021/05/12 04:27:31;;;;;;;;;;;;;;;;;;3547741;40;19931;-71
2021/05/12 04:29:57;;;;;;;;;;;;;;;;;;3541627;40;19930;-72
2021/05/12 04:32:23;;;;;;;;;;;;;;;;;;3535240;40;19930;-72
2021/05/12 04:34:49;;;;;;;;;;;;;;;;;;3542269;40;19930;-73
2021/05/12 04:37:15;;;;;;;;;;;;;;;;;;3542682;40;19937;-72
2021/05/12 04:39:41;;;;;;;;;;;;;;;;;;3541694;40;20271;-71
2021/05/12 04:42:07;;;;;;;;;;;;;;;;;;3538334;40;19930;-71
2021/05/12 04:44:33;;;;;;;;;;;;;;;;;;3541290;40;19930;-72
2021/05/12 04:46:58;;;;;;;;;;;;;;;;;;3541502;40;19946;-73
2021/05/12 04:49:24;;;;;;;;;;;;;;;;;;3548786;40;19930;-72
2021/05/12 04:51:50;;;;;;;;;;;;;;;;;;3541666;40;20016;-73
2021/05/12 04:54:16;;;;;;;;;;;;;;;;;;3541228;40;19949;-71
2021/05/12 04:56:42;;;;;;;;;;;;;;;;;;3544748;40;19941;-72
2021/05/12 04:59:09;;;;;;;;;;;;;;;;;;3540817;40;19938;-71
2021/05/12 05:01:35;;;;;;;;;;;;;;;;;;3541638;40;20287;-72
2021/05/12 05:04:01;;;;;;;;;;;;;;;;;;3539768;40;19926;-71
2021/05/12 05:06:27;;;;;;;;;;;;;;;;;;3538931;40;19930;-72
2021/05/12 05:08:53;;;;;;;;;;;;;;;;;;3539949;40;19930;-71
2021/05/12 05:11:19;;;;;;;;;;;;;;;;;;3538997;40;19937;-71
2021/05/12 05:13:45;;;;;;;;;;;;;;;;;;3541306;40;20259;-71
2021/05/12 05:16:11;;;;;;;;;;;;;;;;;;3541076;40;19930;-71
2021/05/12 05:18:37;;;;;;;;;;;;;;;;;;3548525;40;20045;-71
2021/05/12 05:21:07;;;;;;;;;;;;;;;;;;3540873;40;19930;-71
2021/05/12 05:23:32;;;;;;;;;;;;;;;;;;3530058;40;19953;-71
2021/05/12 05:25:58;;;;;;;;;;;;;;;;;;3542619;40;19930;-70
2021/05/12 05:28:24;;;;;;;;;;;;;;;;;;3539829;40;19931;-71
2021/05/12 05:30:50;;;;;;;;;;;;;;;;;;3531941;40;19937;-70
2021/05/12 05:33:16;;;;;;;;;;;;;;;;;;3536947;40;19937;-72
2021/05/12 05:35:42;;;;;;;;;;;;;;;;;;3541544;40;20224;-71
2021/05/12 05:38:08;;;;;;;;;;;;;;;;;;3541459;40;19939;-71
2021/05/12 05:40:34;;;;;;;;;;;;;;;;;;3541409;40;19936;-71
2021/05/12 05:43:02;;;;;;;;;;;;;;;;;;3540326;40;20269;-76
2021/05/12 05:45:28;;;;;;;;;;;;;;;;;;3540671;40;19938;-71
2021/05/12 05:47:54;;;;;;;;;;;;;;;;;;3540700;40;20173;-72
2021/05/12 05:50:20;;;;;;;;;;;;;;;;;;3537654;40;19937;-70
2021/05/12 05:52:46;;;;;;;;;;;;;;;;;;3541551;40;20282;-71
2021/05/12 05:55:12;;;;;;;;;;;;;;;;;;3539787;40;19945;-72
2021/05/12 05:57:38;;;;;;;;;;;;;;;;;;3541373;40;19957;-71
2021/05/12 06:00:04;;;;;;;;;;;;;;;;;;3548503;40;20223;-71
2021/05/12 06:02:30;;;;;;;;;;;;;;;;;;3542793;40;19934;-71
2021/05/12 06:04:56;;;;;;;;;;;;;;;;;;3539169;40;20276;-71
2021/05/12 06:07:22;;;;;;;;;;;;;;;;;;3540458;40;20067;-71
2021/05/12 06:09:47;;;;;;;;;;;;;;;;;;3539026;40;19930;-71
2021/05/12 06:12:13;;;;;;;;;;;;;;;;;;3541398;40;19985;-71
2021/05/12 06:14:39;;;;;;;;;;;;;;;;;;3540771;40;19936;-71
2021/05/12 06:17:05;;;;;;;;;;;;;;;;;;3540935;40;19930;-71
2021/05/12 06:19:31;;;;;;;;;;;;;;;;;;3530462;40;20326;-71
2021/05/12 06:21:57;;;;;;;;;;;;;;;;;;3545029;40;19935;-71
2021/05/12 06:24:23;;;;;;;;;;;;;;;;;;3541072;40;20048;-72
2021/05/12 06:26:50;;;;;;;;;;;;;;;;;;3539840;40;19938;-71
2021/05/12 06:29:16;;;;;;;;;;;;;;;;;;3539796;40;19937;-71
2021/05/12 06:31:42;;;;;;;;;;;;;;;;;;3540211;40;19946;-69
2021/05/12 06:34:09;;;;;;;;;;;;;;;;;;3540244;40;19930;-72
2021/05/12 06:36:35;;;;;;;;;;;;;;;;;;3542696;40;20280;-70
2021/05/12 06:39:01;;;;;;;;;;;;;;;;;;3540983;40;19930;-71
2021/05/12 06:41:29;;;;;;;;;;;;;;;;;;3531183;40;19930;-72
2021/05/12 06:43:56;;;;;;;;;;;;;;;;;;3540375;40;20276;-71
2021/05/12 06:46:22;;;;;;;;;;;;;;;;;;3539423;40;20917;-68
2021/05/12 06:48:48;;;;;;;;;;;;;;;;;;3542380;40;19930;-71
2021/05/12 06:51:14;;;;;;;;;;;;;;;;;;3530523;40;20264;-71
2021/05/12 06:53:40;;;;;;;;;;;;;;;;;;3540831;40;19938;-72
2021/05/12 06:56:05;;;;;;;;;;;;;;;;;;3540655;40;19966;-74
2021/05/12 06:58:34;;;;;;;;;;;;;;;;;;3540620;40;20219;-76
2021/05/12 07:01:00;;;;;;;;;;;;;;;;;;3542905;40;19944;-71
2021/05/12 07:03:27;;;;;;;;;;;;;;;;;;3540400;40;20272;-71
2021/05/12 07:05:52;;;;;;;;;;;;;;;;;;3537799;40;19944;-72
2021/05/12 07:08:18;;;;;;;;;;;;;;;;;;3536468;40;20280;-71
2021/05/12 07:10:44;;;;;;;;;;;;;;;;;;3537900;40;20324;-71
2021/05/12 07:13:10;;;;;;;;;;;;;;;;;;3546565;40;20024;-75
2021/05/12 07:15:36;;;;;;;;;;;;;;;;;;3544416;40;20338;-71
2021/05/12 07:18:02;;;;;;;;;;;;;;;;;;3542109;40;20016;-72
2021/05/12 07:20:28;;;;;;;;;;;;;;;;;;3532792;40;19931;-77
2021/05/12 07:22:54;;;;;;;;;;;;;;;;;;3541125;40;19930;-71
2021/05/12 07:25:20;;;;;;;;;;;;;;;;;;3539723;40;19931;-72
2021/05/12 07:27:47;;;;;;;;;;;;;;;;;;3540042;40;19930;-72
2021/05/12 07:30:14;;;;;;;;;;;;;;;;;;3540422;40;19930;-69
2021/05/12 07:32:40;;;;;;;;;;;;;;;;;;3538517;40;19935;-75
2021/05/12 07:35:07;;;;;;;;;;;;;;;;;;3537189;40;19941;-70
2021/05/12 07:37:33;;;;;;;;;;;;;;;;;;3541176;40;20191;-72
2021/05/12 07:39:59;;;;;;;;;;;;;;;;;;3537623;40;19936;-71
2021/05/12 07:42:26;;;;;;;;;;;;;;;;;;3540963;40;19934;-70
2021/05/12 07:44:52;;;;;;;;;;;;;;;;;;3542600;40;19943;-71
2021/05/12 07:47:18;;;;;;;;;;;;;;;;;;3531178;40;19945;-69
2021/05/12 07:49:44;;;;;;;;;;;;;;;;;;3527341;40;19950;-72
2021/05/12 07:52:14;;;;;;;;;;;;;;;;;;3535577;40;19938;-70
2021/05/12 07:54:40;;;;;;;;;;;;;;;;;;3536463;40;20021;-70
2021/05/12 07:57:06;;;;;;;;;;;;;;;;;;3536724;40;19942;-70
2021/05/12 07:59:32;;;;;;;;;;;;;;;;;;3543688;40;19937;-70
2021/05/12 08:02:00;;;;;;;;;;;;;;;;;;3542171;40;19938;-70
2021/05/12 08:04:26;;;;;;;;;;;;;;;;;;3540451;40;19930;-73
2021/05/12 08:06:52;;;;;;;;;;;;;;;;;;3537255;40;19930;-72
2021/05/12 08:09:18;;;;;;;;;;;;;;;;;;3538339;40;19983;-69
2021/05/12 08:11:43;;;;;;;;;;;;;;;;;;3538667;40;19966;-71
2021/05/12 08:14:09;;;;;;;;;;;;;;;;;;3538730;40;19937;-71
2021/05/12 08:16:35;;;;;;;;;;;;;;;;;;3538176;40;19958;-71
2021/05/12 08:19:01;;;;;;;;;;;;;;;;;;3538969;40;20016;-78
2021/05/12 08:21:27;;;;;;;;;;;;;;;;;;3538296;40;19934;-73
2021/05/12 08:23:54;;;;;;;;;;;;;;;;;;3537520;40;19941;-70
2021/05/12 08:26:20;;;;;;;;;;;;;;;;;;3538047;40;20033;-71
2021/05/12 08:28:46;;;;;;;;;;;;;;;;;;3538542;40;19941;-73
2021/05/12 08:31:12;;;;;;;;;;;;;;;;;;3538035;40;20212;-71
2021/05/12 08:33:38;;;;;;;;;;;;;;;;;;3539057;40;19942;-71
2021/05/12 08:36:04;;;;;;;;;;;;;;;;;;3534716;40;20032;-76
2021/05/12 08:38:30;;;;;;;;;;;;;;;;;;3540490;40;20073;-71
2021/05/12 08:40:57;;;;;;;;;;;;;;;;;;3540223;40;19941;-72
2021/05/12 08:43:23;;;;;;;;;;;;;;;;;;3540139;40;19945;-71
2021/05/12 08:45:49;;;;;;;;;;;;;;;;;;3540801;40;19930;-70
2021/05/12 08:48:15;;;;;;;;;;;;;;;;;;3539762;40;19953;-70
2021/05/12 08:50:41;;;;;;;;;;;;;;;;;;3538935;40;21259;-71
2021/05/12 08:53:07;;;;;;;;;;;;;;;;;;3540166;40;20299;-71
2021/05/12 08:55:33;;;;;;;;;;;;;;;;;;3540085;40;20013;-72
2021/05/12 08:57:59;;;;;;;;;;;;;;;;;;3539986;40;19930;-72
2021/05/12 09:00:25;;;;;;;;;;;;;;;;;;3540116;40;19930;-71
2021/05/12 09:02:51;;;;;;;;;;;;;;;;;;3539020;40;19930;-72
2021/05/12 09:05:17;;;;;;;;;;;;;;;;;;3536560;40;19942;-71
2021/05/12 09:07:43;;;;;;;;;;;;;;;;;;3527047;40;19930;-70
2021/05/12 09:10:09;;;;;;;;;;;;;;;;;;3533716;40;20370;-70
2021/05/12 09:12:35;;;;;;;;;;;;;;;;;;3531719;40;19930;-72
2021/05/12 09:15:00;;;;;;;;;;;;;;;;;;3532786;40;20295;-73
2021/05/12 09:17:26;;;;;;;;;;;;;;;;;;3531642;40;19941;-71
2021/05/12 09:19:52;;;;;;;;;;;;;;;;;;3531129;40;19930;-70
2021/05/12 09:22:18;;;;;;;;;;;;;;;;;;3531738;40;19998;-77
2021/05/12 09:24:44;;;;;;;;;;;;;;;;;;3533448;40;19930;-70
2021/05/12 09:27:10;;;;;;;;;;;;;;;;;;3533034;40;19930;-72
2021/05/12 09:29:37;;;;;;;;;;;;;;;;;;3532958;40;19934;-69
2021/05/12 09:32:04;;;;;;;;;;;;;;;;;;3530371;40;20299;-72
2021/05/12 09:34:29;;;;;;;;;;;;;;;;;;3534488;40;19931;-70
2021/05/12 09:36:55;;;;;;;;;;;;;;;;;;3532720;40;19949;-71
2021/05/12 09:39:21;;;;;;;;;;;;;;;;;;3531201;40;19941;-71
2021/05/12 09:41:47;;;;;;;;;;;;;;;;;;3531049;40;19930;-71
2021/05/12 09:44:13;;;;;;;;;;;;;;;;;;3532919;40;19937;-71
2021/05/12 09:46:40;;;;;;;;;;;;;;;;;;3532707;40;20025;-72
2021/05/12 09:49:07;;;;;;;;;;;;;;;;;;3532107;40;19966;-71
2021/05/12 09:51:33;;;;;;;;;;;;;;;;;;3526689;40;19931;-71
2021/05/12 09:53:59;;;;;;;;;;;;;;;;;;3530811;40;19966;-70
2021/05/12 09:56:26;;;;;;;;;;;;;;;;;;3531010;40;20414;-71
2021/05/12 09:58:52;;;;;;;;;;;;;;;;;;3534357;40;20288;-72
2021/05/12 10:01:18;;;;;;;;;;;;;;;;;;3530886;40;19937;-71
2021/05/12 10:03:44;;;;;;;;;;;;;;;;;;3530995;40;20734;-71
2021/05/12 10:06:10;;;;;;;;;;;;;;;;;;3541362;40;20287;-70
2021/05/12 10:08:36;;;;;;;;;;;;;;;;;;3542375;40;20015;-71
2021/05/12 10:11:02;;;;;;;;;;;;;;;;;;3542193;40;19967;-71
2021/05/12 10:13:28;;;;;;;;;;;;;;;;;;3541532;40;19931;-71
2021/05/12 10:15:53;;;;;;;;;;;;;;;;;;3541871;40;19938;-71
2021/05/12 10:18:19;;;;;;;;;;;;;;;;;;3538029;40;19934;-70
2021/05/12 10:20:45;;;;;;;;;;;;;;;;;;3542162;40;19930;-71
2021/05/12 10:23:11;;;;;;;;;;;;;;;;;;3542330;40;19930;-70
2021/05/12 10:25:37;;;;;;;;;;;;;;;;;;3541434;40;19930;-71
2021/05/12 10:28:03;;;;;;;;;;;;;;;;;;3542783;40;19952;-72
2021/05/12 10:30:29;;;;;;;;;;;;;;;;;;3541533;40;19945;-71
2021/05/12 10:32:57;;;;;;;;;;;;;;;;;;3541711;40;20283;-71
2021/05/12 10:35:23;;;;;;;;;;;;;;;;;;3541705;40;19934;-70
2021/05/12 10:37:51;;;;;;;;;;;;;;;;;;3541249;40;19930;-71
2021/05/12 10:40:17;;;;;;;;;;;;;;;;;;3543400;40;20294;-71
2021/05/12 10:42:44;;;;;;;;;;;;;;;;;;3540448;40;20287;-71
2021/05/12 10:45:10;;;;;;;;;;;;;;;;;;3540368;40;19935;-71
2021/05/12 10:47:36;;;;;;;;;;;;;;;;;;3542125;40;20262;-70
2021/05/12 10:50:02;;;;;;;;;;;;;;;;;;3531413;40;19938;-71
2021/05/12 10:52:28;;;;;;;;;;;;;;;;;;3540619;40;19930;-71
2021/05/12 10:54:55;;;;;;;;;;;;;;;;;;3537155;40;19934;-70
2021/05/12 10:57:21;;;;;;;;;;;;;;;;;;3538318;40;19930;-72
2021/05/12 10:59:46;;;;;;;;;;;;;;;;;;3539717;40;20046;-72
2021/05/12 11:02:12;;;;;;;;;;;;;;;;;;3538357;40;20295;-72
2021/05/12 11:04:38;;;;;;;;;;;;;;;;;;3534613;40;19946;-72
2021/05/12 11:07:04;;;;;;;;;;;;;;;;;;3539914;40;19931;-71
2021/05/12 11:09:30;;;;;;;;;;;;;;;;;;3537442;40;19938;-72
2021/05/12 11:11:59;;;;;;;;;;;;;;;;;;3541158;40;19937;-72
2021/05/12 11:14:26;;;;;;;;;;;;;;;;;;3539284;40;19930;-72
2021/05/12 11:16:52;;;;;;;;;;;;;;;;;;3539249;40;19952;-72
2021/05/12 11:19:18;;;;;;;;;;;;;;;;;;3539986;40;19938;-72
2021/05/12 11:21:46;;;;;;;;;;;;;;;;;;3538260;40;19974;-70
2021/05/12 11:24:15;;;;;;;;;;;;;;;;;;3540561;40;19978;-72
2021/05/12 11:26:51;;;;;;;;;;;;;;;;;;3539890;40;19938;-71
2021/05/12 11:31:58;;;;;;;;;;;;;;;;;;3540898;40;19930;-70
2021/05/12 11:34:24;;;;;;;;;;;;;;;;;;3538484;40;19930;-72
2021/05/12 11:36:50;;;;;;;;;;;;;;;;;;3545700;40;20049;-70
2021/05/12 11:39:16;;;;;;;;;;;;;;;;;;3534115;40;19930;-71
2021/05/12 11:41:42;;;;;;;;;;;;;;;;;;3542111;40;19965;-71
2021/05/12 11:44:08;;;;;;;;;;;;;;;;;;3542881;40;19938;-71
2021/05/12 11:46:34;;;;;;;;;;;;;;;;;;3541111;40;19969;-71
2021/05/12 11:49:02;;;;;;;;;;;;;;;;;;3538485;40;19973;-71
2021/05/12 11:51:28;;;;;;;;;;;;;;;;;;3540567;40;19930;-71
2021/05/12 11:53:54;;;;;;;;;;;;;;;;;;3540988;40;19945;-70
2021/05/12 11:56:20;;;;;;;;;;;;;;;;;;3536167;40;19945;-71
2021/05/12 11:58:46;;;;;;;;;;;;;;;;;;3542256;40;19934;-71
2021/05/12 12:01:13;;;;;;;;;;;;;;;;;;3538776;40;19934;-71
2021/05/12 12:03:45;;;;;;;;;;;;;;;;;;3537927;40;20730;-72
2021/05/12 12:06:11;;;;;;;;;;;;;;;;;;3538236;40;19934;-73
2021/05/12 12:08:37;;;;;;;;;;;;;;;;;;3538610;40;19934;-71
2021/05/12 12:11:03;;;;;;;;;;;;;;;;;;3534334;40;19937;-71
2021/05/12 12:13:29;;;;;;;;;;;;;;;;;;3534866;40;19930;-70
2021/05/12 12:15:55;;;;;;;;;;;;;;;;;;3540175;40;19937;-71
2021/05/12 12:18:21;;;;;;;;;;;;;;;;;;3539312;40;19975;-71
2021/05/12 12:20:47;;;;;;;;;;;;;;;;;;3539107;40;19942;-73
2021/05/12 12:23:14;;;;;;;;;;;;;;;;;;3538873;40;19950;-71
2021/05/12 12:25:47;;;;;;;;;;;;;;;;;;3538836;40;19938;-71
2021/05/12 12:28:13;;;;;;;;;;;;;;;;;;3538333;40;20230;-71
2021/05/12 12:30:39;;;;;;;;;;;;;;;;;;3539069;40;19930;-71
2021/05/12 12:33:05;;;;;;;;;;;;;;;;;;3539207;40;19930;-70
2021/05/12 12:35:31;;;;;;;;;;;;;;;;;;3539394;40;19950;-77
2021/05/12 12:37:57;;;;;;;;;;;;;;;;;;3539693;40;19938;-71
2021/05/12 12:40:24;;;;;;;;;;;;;;;;;;3539068;40;20046;-70
2021/05/12 12:42:50;;;;;;;;;;;;;;;;;;3539387;40;19930;-72
2021/05/12 12:45:16;;;;;;;;;;;;;;;;;;3539830;40;19930;-71
2021/05/12 12:47:42;;;;;;;;;;;;;;;;;;3539169;40;19965;-70
2021/05/12 12:50:08;;;;;;;;;;;;;;;;;;3538901;40;19930;-70
2021/05/12 12:52:35;;;;;;;;;;;;;;;;;;3539431;40;19934;-70
2021/05/12 12:55:03;;;;;;;;;;;;;;;;;;3538460;40;19938;-71
2021/05/12 12:57:29;;;;;;;;;;;;;;;;;;3539624;40;19930;-71
2021/05/12 12:59:55;;;;;;;;;;;;;;;;;;3537831;40;20271;-70
2021/05/12 13:02:21;;;;;;;;;;;;;;;;;;3538738;40;19938;-71
2021/05/12 13:04:47;;;;;;;;;;;;;;;;;;3539809;40;19942;-71
2021/05/12 13:07:18;;;;;;;;;;;;;;;;;;3537562;40;19969;-70
2021/05/12 13:09:44;;;;;;;;;;;;;;;;;;3529334;40;19941;-72
2021/05/12 13:12:10;;;;;;;;;;;;;;;;;;3538434;40;20165;-76
2021/05/12 13:14:36;;;;;;;;;;;;;;;;;;3538642;40;19945;-71
2021/05/12 13:17:02;;;;;;;;;;;;;;;;;;3538503;40;20269;-71
2021/05/12 13:19:28;;;;;;;;;;;;;;;;;;3537356;40;19938;-71
2021/05/12 13:21:54;;;;;;;;;;;;;;;;;;3537485;40;20004;-72
2021/05/12 13:24:19;;;;;;;;;;;;;;;;;;3537324;40;20299;-71
2021/05/12 13:26:45;;;;;;;;;;;;;;;;;;3538917;40;19938;-71
2021/05/12 13:29:11;;;;;;;;;;;;;;;;;;3539061;40;19980;-71
2021/05/12 13:31:37;;;;;;;;;;;;;;;;;;3533137;40;20323;-74
2021/05/12 13:34:05;;;;;;;;;;;;;;;;;;3539048;40;19930;-71
2021/05/12 13:36:31;;;;;;;;;;;;;;;;;;3539315;40;19942;-70
2021/05/12 13:38:57;;;;;;;;;;;;;;;;;;3538606;40;20040;-71
2021/05/12 13:41:23;;;;;;;;;;;;;;;;;;3538543;40;19937;-71
2021/05/12 13:43:49;;;;;;;;;;;;;;;;;;3539229;40;19960;-71
2021/05/12 13:46:15;;;;;;;;;;;;;;;;;;3538662;40;19946;-71
2021/05/12 13:48:41;;;;;;;;;;;;;;;;;;3539426;40;20384;-71
2021/05/12 13:51:07;;;;;;;;;;;;;;;;;;3539875;40;20016;-71
2021/05/12 13:53:44;;;;;;;;;;;;;;;;;;3539181;40;20283;-70
2021/05/12 13:59:22;;;;;;;;;;;;;;;;;;3538423;40;20302;-71
2021/05/12 14:04:40;;;;;;;;;;;;;;;;;;3523866;40;19950;-71
2021/05/12 14:07:06;;;;;;;;;;;;;;;;;;3540803;40;20311;-71
2021/05/12 14:09:39;;;;;;;;;;;;;;;;;;3541462;40;20025;-71
2021/05/12 14:12:08;;;;;;;;;;;;;;;;;;3543781;40;19934;-70
2021/05/12 14:17:58;;;;;;;;;;;;;;;;;;3629541;39;20323;-69
2021/05/12 14:20:24;;;;;;;;;;;;;;;;;;3631889;39;19931;-71
2021/05/12 14:22:50;;;;;;;;;;;;;;;;;;3617748;39;19934;-70
2021/05/12 14:25:16;;;;;;;;;;;;;;;;;;3630954;39;19954;-71
2021/05/12 14:27:42;;;;;;;;;;;;;;;;;;3617859;39;19992;-70
2021/05/12 14:30:08;;;;;;;;;;;;;;;;;;3631510;39;19931;-70
2021/05/12 14:32:34;;;;;;;;;;;;;;;;;;3630576;39;19939;-70
2021/05/12 14:35:02;;;;;;;;;;;;;;;;;;3632956;39;19931;-70
2021/05/12 14:37:28;;;;;;;;;;;;;;;;;;3630669;39;19943;-69
2021/05/12 14:39:54;;;;;;;;;;;;;;;;;;3631114;39;20314;-70
2021/05/12 14:42:20;;;;;;;;;;;;;;;;;;3630849;39;19935;-70
2021/05/12 14:44:46;;;;;;;;;;;;;;;;;;3630609;39;20328;-70
2021/05/12 14:47:12;;;;;;;;;;;;;;;;;;3631619;39;19977;-70
2021/05/12 14:49:39;;;;;;;;;;;;;;;;;;3631090;39;19931;-70
2021/05/12 14:54:51;;;;;;;;;;;;;;;;;;3630036;39;19935;-72
2021/05/12 15:07:41;;;;;;;;;;;;;;;;;;3620123;39;19924;-70
2021/05/12 15:10:07;;;;;;;;;;;;;;;;;;3619368;39;19928;-70
2021/05/12 15:12:33;;;;;;;;;;;;;;;;;;3617720;39;20204;-70
2021/05/12 15:14:59;;;;;;;;;;;;;;;;;;3603310;39;19940;-70
2021/05/12 15:17:25;;;;;;;;;;;;;;;;;;3605128;39;19963;-71
2021/05/12 15:19:51;;;;;;;;;;;;;;;;;;3605110;39;19939;-68
2021/05/12 15:22:17;;;;;;;;;;;;;;;;;;3604408;39;19936;-71
2021/05/12 15:24:43;;;;;;;;;;;;;;;;;;3604613;39;20277;-71
2021/05/12 15:27:09;;;;;;;;;;;;;;;;;;3593242;39;19929;-77
2021/05/12 15:29:35;;;;;;;;;;;;;;;;;;3597339;39;20012;-70
2021/05/12 15:32:00;;;;;;;;;;;;;;;;;;3595167;39;20280;-69
2021/05/12 15:34:26;;;;;;;;;;;;;;;;;;3594210;39;20282;-70
2021/05/12 15:36:52;;;;;;;;;;;;;;;;;;3598890;39;19936;-70
2021/05/12 15:39:18;;;;;;;;;;;;;;;;;;3596814;39;19934;-70
2021/05/12 15:41:44;;;;;;;;;;;;;;;;;;3598450;39;19930;-70
2021/05/12 15:44:10;;;;;;;;;;;;;;;;;;3595686;39;19928;-70
2021/05/12 15:46:36;;;;;;;;;;;;;;;;;;3598663;39;20183;-70
2021/05/12 15:49:02;;;;;;;;;;;;;;;;;;3595591;39;20292;-72
2021/05/12 15:51:28;;;;;;;;;;;;;;;;;;3600229;39;19999;-71
2021/05/12 15:53:54;;;;;;;;;;;;;;;;;;3593894;39;19932;-71
2021/05/12 15:56:20;;;;;;;;;;;;;;;;;;3592650;39;19935;-71
2021/05/12 15:58:46;;;;;;;;;;;;;;;;;;3598590;39;19928;-70
2021/05/12 16:01:12;;;;;;;;;;;;;;;;;;3595112;39;19939;-70
2021/05/12 16:03:38;;;;;;;;;;;;;;;;;;3596336;39;19924;-70
2021/05/12 16:06:04;;;;;;;;;;;;;;;;;;3591449;39;19941;-70
2021/05/12 16:08:32;;;;;;;;;;;;;;;;;;3590879;40;19944;-70
2021/05/12 16:10:58;;;;;;;;;;;;;;;;;;3594092;39;20296;-70
2021/05/12 16:13:24;;;;;;;;;;;;;;;;;;3596177;39;19933;-70
2021/05/12 16:16:02;;;;;;;;;;;;;;;;;;3594207;39;19937;-70
2021/05/12 16:18:28;;;;;;;;;;;;;;;;;;3593039;39;19929;-70
2021/05/12 16:20:54;;;;;;;;;;;;;;;;;;3595521;39;19939;-70
2021/05/12 16:23:20;;;;;;;;;;;;;;;;;;3601045;39;19936;-71
2021/05/12 16:25:47;;;;;;;;;;;;;;;;;;3594222;39;19928;-69
2021/05/12 16:28:13;;;;;;;;;;;;;;;;;;3593617;39;20274;-70
2021/05/12 16:30:39;;;;;;;;;;;;;;;;;;3597088;39;19928;-70
2021/05/12 16:33:05;;;;;;;;;;;;;;;;;;3598692;39;19943;-69
2021/05/12 16:35:30;;;;;;;;;;;;;;;;;;3601515;39;19936;-70
2021/05/12 16:37:56;;;;;;;;;;;;;;;;;;3598738;39;19928;-70
2021/05/12 16:40:22;;;;;;;;;;;;;;;;;;3592261;39;20265;-70
2021/05/12 16:42:48;;;;;;;;;;;;;;;;;;3597226;39;19928;-69
2021/05/12 16:45:15;;;;;;;;;;;;;;;;;;3593532;39;19935;-73
2021/05/12 16:47:42;;;;;;;;;;;;;;;;;;3601631;39;19935;-71
2021/05/12 16:50:08;;;;;;;;;;;;;;;;;;3596673;39;19928;-70
2021/05/12 16:52:34;;;;;;;;;;;;;;;;;;3596856;39;19928;-70
2021/05/12 16:55:00;;;;;;;;;;;;;;;;;;3597365;39;19934;-70
2021/05/12 16:57:26;;;;;;;;;;;;;;;;;;3597867;39;19928;-70
2021/05/12 16:59:52;;;;;;;;;;;;;;;;;;3598021;39;19928;-70
2021/05/12 17:02:18;;;;;;;;;;;;;;;;;;3598192;39;19935;-70